Time,TemperatureF,DewpointF,PressureIn,WindDirection,WindDirectionDegrees,WindSpeedMPH,WindSpeedGustMPH,Humidity,HourlyPrecipIn,Conditions,Clouds,dailyrainin,SoftwareType,DateUTC
2013-11-20 00:00:00,44.6,29.0,29.86,SSE,158,9.8,9.8,54,0.00,,,0.00,WUHU216HW,2013-11-20 06:00:00,
2013-11-20 00:05:00,44.6,29.0,29.86,SSE,158,11.4,12.1,54,0.00,,,0.00,WUHU216HW,2013-11-20 06:05:00,
2013-11-20 00:06:00,44.6,29.0,29.86,SSE,158,11.4,12.1,54,0.00,,,0.00,WUHU216HW,2013-11-20 06:06:00,
2013-11-20 00:10:00,44.6,29.0,29.86,SSE,158,11.4,12.1,54,0.00,,,0.00,WUHU216HW,2013-11-20 06:10:00,
2013-11-20 00:30:00,44.5,28.8,29.86,SE,135,11.4,11.4,54,0.00,,,0.00,WUHU216HW,2013-11-20 06:30:00,
2013-11-20 00:31:00,44.5,28.4,29.86,SE,135,11.4,11.4,53,0.00,,,0.00,WUHU216HW,2013-11-20 06:31:00,
2013-11-20 00:35:00,44.5,28.4,29.86,SE,135,11.4,11.4,53,0.00,,,0.00,WUHU216HW,2013-11-20 06:35:00,
2013-11-20 00:36:00,44.5,28.4,29.86,SE,135,11.4,11.4,53,0.00,,,0.00,WUHU216HW,2013-11-20 06:36:00,
2013-11-20 00:37:00,44.5,28.4,29.86,SE,135,11.4,11.4,53,0.00,,,0.00,WUHU216HW,2013-11-20 06:37:00,
2013-11-20 01:00:00,44.6,28.5,29.85,SE,135,15.4,15.4,53,0.00,,,0.00,WUHU216HW,2013-11-20 07:00:00,
2013-11-20 01:05:00,44.6,28.5,29.85,SSE,158,14.8,15.4,53,0.00,,,0.00,WUHU216HW,2013-11-20 07:05:00,
2013-11-20 01:10:00,44.6,28.5,29.85,SSE,158,14.8,14.8,53,0.00,,,0.00,WUHU216HW,2013-11-20 07:10:00,
2013-11-20 01:30:00,44.6,28.5,29.85,SSE,158,11.0,11.0,53,0.00,,,0.00,WUHU216HW,2013-11-20 07:30:00,
2013-11-20 01:31:00,44.6,28.5,29.85,SSE,158,10.7,11.2,53,0.00,,,0.00,WUHU216HW,2013-11-20 07:31:00,
2013-11-20 01:32:00,44.6,28.5,29.85,SSE,158,10.5,11.2,53,0.00,,,0.00,WUHU216HW,2013-11-20 07:32:00,
2013-11-20 01:35:00,44.6,28.5,29.85,SSE,158,9.8,11.2,53,0.00,,,0.00,WUHU216HW,2013-11-20 07:35:00,
2013-11-20 01:36:00,44.6,28.5,29.85,SSE,158,9.8,11.2,53,0.00,,,0.00,WUHU216HW,2013-11-20 07:36:00,
2013-11-20 01:37:00,44.6,28.5,29.85,SSE,158,9.8,11.2,53,0.00,,,0.00,WUHU216HW,2013-11-20 07:37:00,
2013-11-20 02:00:00,44.6,28.1,29.85,SE,135,9.6,9.6,52,0.00,,,0.00,WUHU216HW,2013-11-20 08:00:00,
2013-11-20 02:01:00,44.6,28.1,29.85,ESE,121,8.1,9.6,52,0.00,,,0.00,WUHU216HW,2013-11-20 08:01:00,
2013-11-20 02:05:00,44.6,28.1,29.85,ESE,113,7.4,9.6,52,0.00,,,0.00,WUHU216HW,2013-11-20 08:05:00,
2013-11-20 02:06:00,44.6,28.1,29.85,ESE,113,7.4,9.6,52,0.00,,,0.00,WUHU216HW,2013-11-20 08:06:00,
2013-11-20 02:10:00,44.6,28.1,29.85,ESE,113,7.4,7.4,52,0.00,,,0.00,WUHU216HW,2013-11-20 08:10:00,
2013-11-20 02:30:00,44.6,28.1,29.85,SE,135,11.2,11.2,52,0.00,,,0.00,WUHU216HW,2013-11-20 08:30:00,
2013-11-20 02:31:00,44.6,28.1,29.85,SSE,158,14.1,14.1,52,0.00,,,0.00,WUHU216HW,2013-11-20 08:31:00,
2013-11-20 02:35:00,44.6,28.1,29.85,SSE,158,14.1,14.1,52,0.00,,,0.00,WUHU216HW,2013-11-20 08:35:00,
2013-11-20 02:36:00,44.6,28.1,29.85,SSE,158,14.1,14.1,52,0.00,,,0.00,WUHU216HW,2013-11-20 08:36:00,
2013-11-20 02:40:00,44.6,28.1,29.85,SSE,158,14.1,14.1,52,0.00,,,0.00,WUHU216HW,2013-11-20 08:40:00,
2013-11-20 03:00:00,44.5,28.4,29.85,SE,135,12.1,12.1,53,0.00,,,0.00,WUHU216HW,2013-11-20 09:00:00,
2013-11-20 03:01:00,44.5,28.4,29.85,SE,133,12.1,14.5,53,0.00,,,0.00,WUHU216HW,2013-11-20 09:01:00,
2013-11-20 03:05:00,44.5,28.4,29.85,East,90,9.6,14.5,53,0.00,,,0.00,WUHU216HW,2013-11-20 09:05:00,
2013-11-20 03:06:00,44.5,28.4,29.85,East,90,9.6,14.5,53,0.00,,,0.00,WUHU216HW,2013-11-20 09:06:00,
2013-11-20 03:10:00,44.5,28.4,29.85,East,90,9.6,14.5,53,0.00,,,0.00,WUHU216HW,2013-11-20 09:10:00,
2013-11-20 03:30:00,44.3,28.2,29.85,SSE,158,13.2,13.2,53,0.00,,,0.00,WUHU216HW,2013-11-20 09:30:00,
2013-11-20 03:31:00,44.3,28.2,29.85,SSE,158,13.2,13.2,53,0.00,,,0.00,WUHU216HW,2013-11-20 09:31:00,
2013-11-20 03:35:00,44.3,28.2,29.85,SSE,158,13.2,13.2,53,0.00,,,0.00,WUHU216HW,2013-11-20 09:35:00,
2013-11-20 03:36:00,44.3,28.2,29.85,SSE,158,13.2,13.2,53,0.00,,,0.00,WUHU216HW,2013-11-20 09:36:00,
2013-11-20 04:00:00,44.3,28.2,29.85,ESE,113,8.5,8.5,53,0.00,,,0.00,WUHU216HW,2013-11-20 10:00:00,
2013-11-20 04:01:00,44.1,28.0,29.85,South,180,10.7,10.7,53,0.00,,,0.00,WUHU216HW,2013-11-20 10:01:00,
2013-11-20 04:05:00,44.1,28.0,29.85,South,180,10.7,10.7,53,0.00,,,0.00,WUHU216HW,2013-11-20 10:05:00,
2013-11-20 04:06:00,44.1,28.0,29.85,South,180,10.7,10.7,53,0.00,,,0.00,WUHU216HW,2013-11-20 10:06:00,
2013-11-20 04:30:00,44.3,28.2,29.85,South,180,14.8,14.8,53,0.00,,,0.00,WUHU216HW,2013-11-20 10:30:00,
2013-11-20 04:31:00,44.3,28.2,29.85,SSW,194,13.6,14.8,53,0.00,,,0.00,WUHU216HW,2013-11-20 10:31:00,
2013-11-20 04:35:00,44.3,28.2,29.85,SSW,203,13.0,14.8,53,0.00,,,0.00,WUHU216HW,2013-11-20 10:35:00,
2013-11-20 04:36:00,44.3,28.2,29.85,SSW,203,13.0,14.8,53,0.00,,,0.00,WUHU216HW,2013-11-20 10:36:00,
2013-11-20 04:40:00,44.3,28.2,29.85,SSW,203,13.0,13.0,53,0.00,,,0.00,WUHU216HW,2013-11-20 10:40:00,
2013-11-20 05:00:00,44.1,28.0,29.84,SE,135,10.7,10.7,53,0.00,,,0.00,WUHU216HW,2013-11-20 11:00:00,
2013-11-20 05:01:00,44.1,28.0,29.84,SE,135,12.8,12.8,53,0.00,,,0.00,WUHU216HW,2013-11-20 11:01:00,
2013-11-20 05:05:00,44.1,28.0,29.84,SE,135,12.8,12.8,53,0.00,,,0.00,WUHU216HW,2013-11-20 11:05:00,
2013-11-20 05:06:00,44.1,28.0,29.84,SE,135,12.8,12.8,53,0.00,,,0.00,WUHU216HW,2013-11-20 11:06:00,
2013-11-20 05:07:00,44.1,28.0,29.84,SE,135,12.8,12.8,53,0.00,,,0.00,WUHU216HW,2013-11-20 11:07:00,
2013-11-20 05:10:00,44.1,28.0,29.84,SE,135,12.8,12.8,53,0.00,,,0.00,WUHU216HW,2013-11-20 11:10:00,
2013-11-20 05:30:00,44.3,27.7,29.84,East,90,9.2,9.2,52,0.00,,,0.00,WUHU216HW,2013-11-20 11:30:00,
2013-11-20 05:31:00,44.3,27.7,29.84,SE,136,9.0,9.2,52,0.00,,,0.00,WUHU216HW,2013-11-20 11:31:00,
2013-11-20 05:32:00,44.3,27.7,29.84,SE,136,9.0,9.2,52,0.00,,,0.00,WUHU216HW,2013-11-20 11:32:00,
2013-11-20 05:35:00,44.3,27.7,29.84,SSE,158,8.9,9.2,52,0.00,,,0.00,WUHU216HW,2013-11-20 11:35:00,
2013-11-20 05:36:00,44.3,27.7,29.84,SSE,158,8.9,9.2,52,0.00,,,0.00,WUHU216HW,2013-11-20 11:36:00,
2013-11-20 05:37:00,44.3,27.7,29.84,SSE,158,8.9,9.2,52,0.00,,,0.00,WUHU216HW,2013-11-20 11:37:00,
2013-11-20 06:00:00,44.1,27.5,29.84,SSE,158,8.7,8.7,52,0.00,,,0.00,WUHU216HW,2013-11-20 12:00:00,
2013-11-20 06:05:00,44.1,27.5,29.84,ESE,113,8.3,8.7,52,0.00,,,0.00,WUHU216HW,2013-11-20 12:05:00,
2013-11-20 06:06:00,44.1,27.5,29.84,ESE,113,8.3,8.7,52,0.00,,,0.00,WUHU216HW,2013-11-20 12:06:00,
2013-11-20 06:10:00,44.1,27.5,29.84,ESE,113,8.3,8.7,52,0.00,,,0.00,WUHU216HW,2013-11-20 12:10:00,
2013-11-20 06:30:00,43.9,27.0,29.85,SSE,158,11.6,11.6,51,0.00,,,0.00,WUHU216HW,2013-11-20 12:30:00,
2013-11-20 06:31:00,43.9,27.0,29.85,South,172,11.0,11.6,51,0.00,,,0.00,WUHU216HW,2013-11-20 12:31:00,
2013-11-20 06:35:00,43.9,27.0,29.85,South,180,10.7,11.6,51,0.00,,,0.00,WUHU216HW,2013-11-20 12:35:00,
2013-11-20 06:36:00,43.9,27.0,29.85,South,180,10.7,11.6,51,0.00,,,0.00,WUHU216HW,2013-11-20 12:36:00,
2013-11-20 06:37:00,43.9,27.0,29.85,South,180,10.7,11.6,51,0.00,,,0.00,WUHU216HW,2013-11-20 12:37:00,
2013-11-20 07:00:00,43.7,26.8,29.86,SSE,158,10.1,10.1,51,0.00,,,0.00,WUHU216HW,2013-11-20 13:00:00,
2013-11-20 07:01:00,43.7,26.8,29.86,SSE,158,12.1,12.1,51,0.00,,,0.00,WUHU216HW,2013-11-20 13:01:00,
2013-11-20 07:05:00,43.7,26.8,29.86,SSE,158,12.1,12.1,51,0.00,,,0.00,WUHU216HW,2013-11-20 13:05:00,
2013-11-20 07:06:00,43.7,26.8,29.86,SSE,158,12.1,12.1,51,0.00,,,0.00,WUHU216HW,2013-11-20 13:06:00,
2013-11-20 07:10:00,43.7,26.8,29.86,SSE,158,12.1,12.1,51,0.00,,,0.00,WUHU216HW,2013-11-20 13:10:00,
2013-11-20 07:30:00,43.7,26.8,29.86,East,90,7.8,7.8,51,0.00,,,0.00,WUHU216HW,2013-11-20 13:30:00,
2013-11-20 07:31:00,43.7,26.8,29.86,ESE,113,12.1,12.1,51,0.00,,,0.00,WUHU216HW,2013-11-20 13:31:00,
2013-11-20 07:35:00,43.7,26.8,29.86,ESE,113,12.1,12.1,51,0.00,,,0.00,WUHU216HW,2013-11-20 13:35:00,
2013-11-20 07:36:00,43.7,26.8,29.86,ESE,113,12.1,12.1,51,0.00,,,0.00,WUHU216HW,2013-11-20 13:36:00,
2013-11-20 08:00:00,43.9,27.0,29.86,SSE,158,10.5,10.5,51,0.00,,,0.00,WUHU216HW,2013-11-20 14:00:00,
2013-11-20 08:05:00,43.9,27.0,29.86,SSE,158,11.4,11.4,51,0.00,,,0.00,WUHU216HW,2013-11-20 14:05:00,
2013-11-20 08:06:00,43.9,27.0,29.86,SSE,158,11.4,11.4,51,0.00,,,0.00,WUHU216HW,2013-11-20 14:06:00,
2013-11-20 08:30:00,44.5,26.5,29.87,SE,135,9.8,9.8,49,0.00,,,0.00,WUHU216HW,2013-11-20 14:30:00,
2013-11-20 08:35:00,44.5,26.5,29.87,SSE,158,11.4,11.4,49,0.00,,,0.00,WUHU216HW,2013-11-20 14:35:00,
2013-11-20 08:36:00,44.5,26.5,29.87,SSE,158,11.4,11.4,49,0.00,,,0.00,WUHU216HW,2013-11-20 14:36:00,
2013-11-20 09:00:00,44.5,26.5,29.87,SSE,158,11.4,11.4,49,0.00,,,0.00,WUHU216HW,2013-11-20 15:00:00,
2013-11-20 09:01:00,44.5,26.5,29.87,SSE,151,10.9,11.4,49,0.00,,,0.00,WUHU216HW,2013-11-20 15:01:00,
2013-11-20 09:05:00,44.5,26.5,29.87,SE,135,9.8,11.4,49,0.00,,,0.00,WUHU216HW,2013-11-20 15:05:00,
2013-11-20 09:06:00,44.5,26.5,29.87,SE,135,9.8,11.4,49,0.00,,,0.00,WUHU216HW,2013-11-20 15:06:00,
2013-11-20 09:10:00,44.5,26.5,29.87,SE,135,9.8,9.8,49,0.00,,,0.00,WUHU216HW,2013-11-20 15:10:00,
2013-11-20 09:30:00,44.6,27.2,29.88,SSE,158,9.6,9.6,50,0.00,,,0.00,WUHU216HW,2013-11-20 15:30:00,
2013-11-20 09:35:00,44.5,27.0,29.88,SSE,158,17.9,17.9,50,0.00,,,0.00,WUHU216HW,2013-11-20 15:35:00,
2013-11-20 09:36:00,44.5,27.0,29.88,SSE,158,17.9,17.9,50,0.00,,,0.00,WUHU216HW,2013-11-20 15:36:00,
2013-11-20 09:40:00,44.5,27.0,29.88,SSE,158,17.9,17.9,50,0.00,,,0.00,WUHU216HW,2013-11-20 15:40:00,
2013-11-20 10:00:00,44.5,27.9,29.89,SE,135,13.0,13.0,52,0.00,,,0.00,WUHU216HW,2013-11-20 16:00:00,
2013-11-20 10:01:00,44.5,27.9,29.89,South,180,15.7,15.7,52,0.00,,,0.00,WUHU216HW,2013-11-20 16:01:00,
2013-11-20 10:05:00,44.5,27.9,29.89,South,180,15.7,15.7,52,0.00,,,0.00,WUHU216HW,2013-11-20 16:05:00,
2013-11-20 10:06:00,44.5,27.9,29.89,South,180,15.7,15.7,52,0.00,,,0.00,WUHU216HW,2013-11-20 16:06:00,
2013-11-20 10:30:00,44.6,28.5,29.90,South,180,7.2,7.2,53,0.00,,,0.00,WUHU216HW,2013-11-20 16:30:00,
2013-11-20 10:31:00,44.6,28.5,29.90,South,174,6.7,7.2,53,0.00,,,0.00,WUHU216HW,2013-11-20 16:31:00,
2013-11-20 10:35:00,44.6,28.5,29.90,SSE,158,5.6,7.2,53,0.00,,,0.00,WUHU216HW,2013-11-20 16:35:00,
2013-11-20 10:36:00,44.6,28.5,29.90,SSE,158,5.6,7.2,53,0.00,,,0.00,WUHU216HW,2013-11-20 16:36:00,
2013-11-20 11:00:00,45.4,29.6,29.89,South,180,13.4,13.4,54,0.00,,,0.00,WUHU216HW,2013-11-20 17:00:00,
2013-11-20 11:01:00,45.4,29.6,29.88,SSE,163,12.9,14.3,54,0.00,,,0.00,WUHU216HW,2013-11-20 17:01:00,
2013-11-20 11:05:00,45.4,29.6,29.88,SSE,158,9.8,14.3,54,0.00,,,0.00,WUHU216HW,2013-11-20 17:05:00,
2013-11-20 11:06:00,45.4,29.6,29.88,SSE,158,9.8,14.3,54,0.00,,,0.00,WUHU216HW,2013-11-20 17:06:00,
2013-11-20 11:10:00,45.4,29.6,29.88,SSE,158,9.8,9.8,54,0.00,,,0.00,WUHU216HW,2013-11-20 17:10:00,
2013-11-20 11:30:00,45.7,30.4,29.89,ESE,113,8.7,8.7,55,0.00,,,0.00,WUHU216HW,2013-11-20 17:30:00,
2013-11-20 11:31:00,45.7,30.4,29.89,ESE,119,8.1,8.7,55,0.00,,,0.00,WUHU216HW,2013-11-20 17:31:00,
2013-11-20 11:35:00,45.7,30.4,29.89,SE,135,6.9,8.7,55,0.00,,,0.00,WUHU216HW,2013-11-20 17:35:00,
2013-11-20 11:37:00,45.7,30.4,29.89,SE,135,6.9,8.7,55,0.00,,,0.00,WUHU216HW,2013-11-20 17:37:00,
2013-11-20 11:40:00,45.7,30.4,29.89,SE,135,6.9,8.7,55,0.00,,,0.00,WUHU216HW,2013-11-20 17:40:00,
2013-11-20 12:00:00,45.2,30.3,29.88,South,180,9.8,9.8,56,0.00,,,0.00,WUHU216HW,2013-11-20 18:00:00,
2013-11-20 12:01:00,45.2,30.3,29.89,South,180,9.8,9.8,56,0.00,,,0.00,WUHU216HW,2013-11-20 18:01:00,
2013-11-20 12:05:00,45.2,30.3,29.89,South,180,9.6,9.8,56,0.00,,,0.00,WUHU216HW,2013-11-20 18:05:00,
2013-11-20 12:06:00,45.2,30.3,29.89,South,180,9.6,9.8,56,0.00,,,0.00,WUHU216HW,2013-11-20 18:06:00,
2013-11-20 12:07:00,45.2,30.3,29.89,South,180,9.6,9.8,56,0.00,,,0.00,WUHU216HW,2013-11-20 18:07:00,
2013-11-20 12:30:00,45.0,30.7,29.88,SE,135,12.8,12.8,57,0.00,,,0.00,WUHU216HW,2013-11-20 18:30:00,
2013-11-20 12:31:00,45.0,30.3,29.88,SSE,158,13.2,13.2,56,0.00,,,0.00,WUHU216HW,2013-11-20 18:31:00,
2013-11-20 12:35:00,45.0,30.3,29.88,SSE,158,13.2,13.2,56,0.00,,,0.00,WUHU216HW,2013-11-20 18:35:00,
2013-11-20 12:36:00,45.0,30.3,29.88,SSE,158,13.2,13.2,56,0.00,,,0.00,WUHU216HW,2013-11-20 18:36:00,
2013-11-20 12:37:00,45.0,30.3,29.88,SSE,158,13.2,13.2,56,0.00,,,0.00,WUHU216HW,2013-11-20 18:37:00,
2013-11-20 13:00:00,44.6,29.9,29.88,SSE,158,7.6,7.6,56,0.00,,,0.00,WUHU216HW,2013-11-20 19:00:00,
2013-11-20 13:05:00,44.6,29.9,29.88,SSE,158,6.7,7.6,56,0.00,,,0.00,WUHU216HW,2013-11-20 19:05:00,
2013-11-20 13:06:00,44.6,29.9,29.88,SSE,158,6.7,7.6,56,0.00,,,0.00,WUHU216HW,2013-11-20 19:06:00,
2013-11-20 13:10:00,44.6,29.9,29.88,SSE,158,6.7,6.7,56,0.00,,,0.00,WUHU216HW,2013-11-20 19:10:00,
2013-11-20 13:30:00,44.5,30.2,29.88,SE,135,11.0,11.0,57,0.00,,,0.00,WUHU216HW,2013-11-20 19:30:00,
2013-11-20 13:31:00,44.5,30.2,29.88,SE,135,8.7,11.0,57,0.00,,,0.00,WUHU216HW,2013-11-20 19:31:00,
2013-11-20 13:35:00,44.5,30.2,29.88,SE,135,7.6,11.0,57,0.00,,,0.00,WUHU216HW,2013-11-20 19:35:00,
2013-11-20 13:36:00,44.5,30.2,29.88,SE,135,7.6,11.0,57,0.00,,,0.00,WUHU216HW,2013-11-20 19:36:00,
2013-11-20 14:00:00,43.7,30.3,29.87,SSE,158,11.2,11.2,59,0.00,,,0.00,WUHU216HW,2013-11-20 20:00:00,
2013-11-20 14:05:00,43.7,30.3,29.87,ESE,113,7.8,11.2,59,0.00,,,0.00,WUHU216HW,2013-11-20 20:05:00,
2013-11-20 14:06:00,43.7,30.3,29.87,ESE,113,7.8,11.2,59,0.00,,,0.00,WUHU216HW,2013-11-20 20:06:00,
2013-11-20 14:30:00,43.4,30.4,29.87,South,180,8.5,8.5,60,0.00,,,0.00,WUHU216HW,2013-11-20 20:30:00,
2013-11-20 14:31:00,43.4,30.4,29.87,SE,135,9.2,9.2,60,0.00,,,0.00,WUHU216HW,2013-11-20 20:31:00,
2013-11-20 14:35:00,43.4,30.4,29.87,SE,135,9.2,9.2,60,0.00,,,0.00,WUHU216HW,2013-11-20 20:35:00,
2013-11-20 14:36:00,43.4,30.4,29.87,SE,135,9.2,9.2,60,0.00,,,0.00,WUHU216HW,2013-11-20 20:36:00,
2013-11-20 14:37:00,43.4,30.4,29.87,SE,135,9.2,9.2,60,0.00,,,0.00,WUHU216HW,2013-11-20 20:37:00,
2013-11-20 15:00:00,42.8,30.2,29.87,SSE,158,8.1,8.1,61,0.00,,,0.00,WUHU216HW,2013-11-20 21:00:00,
2013-11-20 15:05:00,42.8,30.2,29.87,SSE,158,8.1,8.1,61,0.00,,,0.00,WUHU216HW,2013-11-20 21:05:00,
2013-11-20 15:06:00,42.8,30.2,29.87,SSE,158,8.1,8.1,61,0.00,,,0.00,WUHU216HW,2013-11-20 21:06:00,
2013-11-20 15:30:00,42.3,30.2,29.88,East,90,8.5,8.5,62,0.00,,,0.00,WUHU216HW,2013-11-20 21:30:00,
2013-11-20 15:31:00,42.3,29.8,29.88,SE,135,9.6,9.6,61,0.00,,,0.00,WUHU216HW,2013-11-20 21:31:00,
2013-11-20 15:35:00,42.3,29.8,29.88,SE,135,9.6,9.6,61,0.00,,,0.00,WUHU216HW,2013-11-20 21:35:00,
2013-11-20 15:36:00,42.3,29.8,29.88,SE,135,9.6,9.6,61,0.00,,,0.00,WUHU216HW,2013-11-20 21:36:00,
2013-11-20 16:00:00,41.4,29.0,29.89,SSE,158,12.1,12.1,61,0.00,,,0.00,WUHU216HW,2013-11-20 22:00:00,
2013-11-20 16:05:00,41.4,29.0,29.89,SSE,158,12.1,12.1,61,0.00,,,0.00,WUHU216HW,2013-11-20 22:05:00,
2013-11-20 16:06:00,41.4,29.0,29.89,SSE,158,12.1,12.1,61,0.00,,,0.00,WUHU216HW,2013-11-20 22:06:00,
2013-11-20 16:30:00,40.7,27.0,29.90,SE,135,6.7,6.7,58,0.00,,,0.00,WUHU216HW,2013-11-20 22:30:00,
2013-11-20 16:35:00,40.7,27.0,29.90,SE,135,6.7,6.7,58,0.00,,,0.00,WUHU216HW,2013-11-20 22:35:00,
2013-11-20 16:36:00,40.7,27.0,29.90,SE,135,6.7,6.7,58,0.00,,,0.00,WUHU216HW,2013-11-20 22:36:00,
2013-11-20 17:00:00,40.1,25.6,29.91,SSW,203,5.8,5.8,56,0.00,,,0.00,WUHU216HW,2013-11-20 23:00:00,
2013-11-20 17:05:00,40.1,25.6,29.91,SSW,203,5.8,5.8,56,0.00,,,0.00,WUHU216HW,2013-11-20 23:05:00,
2013-11-20 17:30:00,39.8,24.4,29.91,SE,135,5.6,5.6,54,0.00,,,0.00,WUHU216HW,2013-11-20 23:30:00,
2013-11-20 17:31:00,39.8,24.4,29.91,SSE,158,5.1,5.1,54,0.00,,,0.00,WUHU216HW,2013-11-20 23:31:00,
2013-11-20 17:35:00,39.8,24.4,29.91,SSE,158,5.1,5.6,54,0.00,,,0.00,WUHU216HW,2013-11-20 23:35:00,
2013-11-20 17:36:00,39.8,24.4,29.91,SSE,158,5.1,5.6,54,0.00,,,0.00,WUHU216HW,2013-11-20 23:36:00,
2013-11-20 17:40:00,39.8,24.4,29.91,SSE,158,5.1,5.1,54,0.00,,,0.00,WUHU216HW,2013-11-20 23:40:00,
2013-11-20 17:41:00,39.8,24.4,29.91,SSE,158,5.1,5.1,54,0.00,,,0.00,WUHU216HW,2013-11-20 23:41:00,
2013-11-20 18:00:00,39.4,23.6,29.92,SE,135,5.6,5.6,53,0.00,,,0.00,WUHU216HW,2013-11-21 00:00:00,
2013-11-20 18:01:00,39.4,23.6,29.92,SE,135,5.6,5.6,53,0.00,,,0.00,WUHU216HW,2013-11-21 00:01:00,
2013-11-20 18:05:00,39.4,23.6,29.92,SE,135,5.6,5.6,53,0.00,,,0.00,WUHU216HW,2013-11-21 00:05:00,
2013-11-20 18:06:00,39.4,23.6,29.92,SE,135,5.6,5.6,53,0.00,,,0.00,WUHU216HW,2013-11-21 00:06:00,
2013-11-20 18:30:00,39.2,21.1,29.93,ESE,113,6.7,6.7,48,0.00,,,0.00,WUHU216HW,2013-11-21 00:30:00,
2013-11-20 18:31:00,39.2,21.1,29.93,SE,141,7.4,9.4,48,0.00,,,0.00,WUHU216HW,2013-11-21 00:31:00,
2013-11-20 18:35:00,39.2,21.1,29.93,SE,135,6.3,9.4,48,0.00,,,0.00,WUHU216HW,2013-11-21 00:35:00,
2013-11-20 18:36:00,39.2,21.1,29.93,SE,135,6.3,9.4,48,0.00,,,0.00,WUHU216HW,2013-11-21 00:36:00,
2013-11-20 18:40:00,39.2,21.1,29.93,SE,135,6.3,9.4,48,0.00,,,0.00,WUHU216HW,2013-11-21 00:40:00,
2013-11-20 19:00:00,39.1,18.4,29.94,SSE,158,6.9,6.9,43,0.00,,,0.00,WUHU216HW,2013-11-21 01:00:00,
2013-11-20 19:05:00,39.1,18.4,29.94,SSE,158,6.9,6.9,43,0.00,,,0.00,WUHU216HW,2013-11-21 01:05:00,
2013-11-20 19:06:00,39.1,18.4,29.94,SSE,158,6.9,6.9,43,0.00,,,0.00,WUHU216HW,2013-11-21 01:06:00,
2013-11-20 19:30:00,38.7,16.5,29.95,SE,135,7.6,7.6,40,0.00,,,0.00,WUHU216HW,2013-11-21 01:30:00,
2013-11-20 19:31:00,38.7,16.5,29.95,SE,136,7.5,8.7,40,0.00,,,0.00,WUHU216HW,2013-11-21 01:31:00,
2013-11-20 19:35:00,38.7,16.5,29.95,ESE,113,6.0,8.7,40,0.00,,,0.00,WUHU216HW,2013-11-21 01:35:00,
2013-11-20 19:36:00,38.7,16.5,29.95,ESE,113,6.0,8.7,40,0.00,,,0.00,WUHU216HW,2013-11-21 01:36:00,
2013-11-20 19:40:00,38.7,16.5,29.95,ESE,113,6.0,8.7,40,0.00,,,0.00,WUHU216HW,2013-11-21 01:40:00,
2013-11-20 20:00:00,38.5,14.9,29.96,SE,135,5.6,5.6,38,0.00,,,0.00,WUHU216HW,2013-11-21 02:00:00,
2013-11-20 20:01:00,38.5,14.9,29.96,SE,135,5.6,5.6,38,0.00,,,0.00,WUHU216HW,2013-11-21 02:01:00,
2013-11-20 20:05:00,38.5,14.9,29.96,SE,135,5.6,5.6,38,0.00,,,0.00,WUHU216HW,2013-11-21 02:05:00,
2013-11-20 20:06:00,38.5,14.9,29.96,SE,135,5.6,5.6,38,0.00,,,0.00,WUHU216HW,2013-11-21 02:06:00,
2013-11-20 20:30:00,38.2,12.7,29.96,SSE,158,5.4,5.4,35,0.00,,,0.00,WUHU216HW,2013-11-21 02:30:00,
2013-11-20 20:31:00,38.3,12.9,29.96,SSE,158,5.6,5.6,35,0.00,,,0.00,WUHU216HW,2013-11-21 02:31:00,
2013-11-20 20:35:00,38.3,12.9,29.96,SSE,158,5.6,5.6,35,0.00,,,0.00,WUHU216HW,2013-11-21 02:35:00,
2013-11-20 20:36:00,38.3,12.9,29.96,SSE,158,5.6,5.6,35,0.00,,,0.00,WUHU216HW,2013-11-21 02:36:00,
2013-11-20 20:37:00,38.3,12.9,29.96,SSE,158,5.6,5.6,35,0.00,,,0.00,WUHU216HW,2013-11-21 02:37:00,
2013-11-20 20:40:00,38.3,12.9,29.96,SSE,158,5.6,5.6,35,0.00,,,0.00,WUHU216HW,2013-11-21 02:40:00,
2013-11-20 21:00:00,38.2,10.8,29.97,SE,135,2.5,2.5,32,0.00,,,0.00,WUHU216HW,2013-11-21 03:00:00,
2013-11-20 21:05:00,38.2,10.8,29.97,South,180,2.5,2.5,32,0.00,,,0.00,WUHU216HW,2013-11-21 03:05:00,
2013-11-20 21:06:00,38.2,10.8,29.97,South,180,2.5,2.5,32,0.00,,,0.00,WUHU216HW,2013-11-21 03:06:00,
2013-11-20 21:10:00,38.2,10.8,29.97,South,180,2.5,2.5,32,0.00,,,0.00,WUHU216HW,2013-11-21 03:10:00,
2013-11-20 21:30:00,37.8,7.4,29.97,SE,135,5.6,5.6,28,0.00,,,0.00,WUHU216HW,2013-11-21 03:30:00,
2013-11-20 21:31:00,37.8,7.4,29.97,SE,130,4.8,5.6,28,0.00,,,0.00,WUHU216HW,2013-11-21 03:31:00,
2013-11-20 21:35:00,37.8,7.4,29.97,ESE,113,3.1,5.6,28,0.00,,,0.00,WUHU216HW,2013-11-21 03:35:00,
2013-11-20 21:36:00,37.8,7.4,29.97,ESE,113,3.1,5.6,28,0.00,,,0.00,WUHU216HW,2013-11-21 03:36:00,
2013-11-20 22:00:00,37.6,3.7,29.98,SE,135,3.6,3.6,24,0.00,,,0.00,WUHU216HW,2013-11-21 04:00:00,
2013-11-20 22:05:00,37.4,3.5,29.97,SE,135,4.7,4.7,24,0.00,,,0.00,WUHU216HW,2013-11-21 04:05:00,
2013-11-20 22:10:00,37.4,3.5,29.97,SE,135,4.7,4.7,24,0.00,,,0.00,WUHU216HW,2013-11-21 04:10:00,
2013-11-20 22:30:00,37.1,-8.8,29.98,South,180,4.9,4.9,14,0.00,,,0.00,WUHU216HW,2013-11-21 04:30:00,
2013-11-20 22:31:00,37.1,-8.8,29.98,South,175,4.2,4.9,14,0.00,,,0.00,WUHU216HW,2013-11-21 04:31:00,
2013-11-20 22:35:00,37.1,-8.8,29.98,SSE,158,2.9,4.9,14,0.00,,,0.00,WUHU216HW,2013-11-21 04:35:00,
2013-11-20 22:36:00,37.1,-8.8,29.98,SSE,158,2.9,4.9,14,0.00,,,0.00,WUHU216HW,2013-11-21 04:36:00,
2013-11-20 23:00:00,36.9,-14.7,29.99,SSE,158,5.4,5.4,9,0.00,,,0.00,WUHU216HW,2013-11-21 05:00:00,
2013-11-20 23:01:00,36.9,-14.7,29.99,SSE,158,5.4,5.4,9,0.00,,,0.00,WUHU216HW,2013-11-21 05:01:00,
2013-11-20 23:02:00,36.9,-14.7,29.99,SSE,158,5.4,5.4,9,0.00,,,0.00,WUHU216HW,2013-11-21 05:02:00,
2013-11-20 23:06:00,36.9,-14.7,29.99,SSE,158,5.4,5.4,9,0.00,,,0.00,WUHU216HW,2013-11-21 05:06:00,
2013-11-20 23:07:00,36.9,-14.7,29.99,SSE,158,5.4,5.4,9,0.00,,,0.00,WUHU216HW,2013-11-21 05:07:00,
2013-11-20 23:08:00,36.9,-14.7,29.99,SSE,158,5.4,5.4,9,0.00,,,0.00,WUHU216HW,2013-11-21 05:08:00,
2013-11-20 23:30:00,36.5,-14.9,29.99,SSE,158,2.9,2.9,3,0.00,,,0.00,WUHU216HW,2013-11-21 05:30:00,
2013-11-20 23:31:00,36.5,-14.9,29.99,SSE,158,2.9,2.9,3,0.00,,,0.00,WUHU216HW,2013-11-21 05:31:00,
2013-11-20 23:35:00,36.5,-14.9,29.99,SSE,158,2.9,2.9,3,0.00,,,0.00,WUHU216HW,2013-11-21 05:35:00,
2013-11-20 23:36:00,36.5,-14.9,29.99,SSE,158,2.9,2.9,3,0.00,,,0.00,WUHU216HW,2013-11-21 05:36:00,
2013-11-20 23:37:00,36.5,-14.9,29.99,SSE,158,2.9,2.9,3,0.00,,,0.00,WUHU216HW,2013-11-21 05:37:00,